createdAt,value
2023-04-10T00:00:14.749Z,25.00
2023-04-10T00:01:14.826Z,25.00
2023-04-10T00:02:14.948Z,25.00
2023-04-10T00:03:15.203Z,0.00
2023-04-10T00:04:15.151Z,0.00
2023-04-10T00:05:15.278Z,0.00
2023-04-10T00:06:15.157Z,0.00
2023-04-10T00:07:15.221Z,0.00
2023-04-10T00:08:15.293Z,0.00
2023-04-10T00:09:15.353Z,0.00
2023-04-10T00:10:15.497Z,0.00
2023-04-10T00:11:15.415Z,0.00
2023-04-10T00:12:15.463Z,0.00
2023-04-10T00:13:15.454Z,10.00
2023-04-10T00:14:15.488Z,25.00
2023-04-10T00:15:15.485Z,26.85
2023-04-10T00:16:15.511Z,25.46
2023-04-10T00:17:15.516Z,26.04
2023-04-10T00:18:15.542Z,25.00
2023-04-10T00:19:15.519Z,25.57
2023-04-10T00:20:15.516Z,26.61
2023-04-10T00:21:15.525Z,25.00
2023-04-10T00:22:15.525Z,26.53
2023-04-10T00:23:15.544Z,25.00
2023-04-10T00:24:15.549Z,27.90
2023-04-10T00:25:15.576Z,27.38
2023-04-10T00:26:15.602Z,25.00
2023-04-10T00:27:15.615Z,27.34
2023-04-10T00:28:15.642Z,25.28
2023-04-10T00:29:15.634Z,26.05
2023-04-10T00:30:15.635Z,29.70
2023-04-10T00:31:15.652Z,30.17
2023-04-10T00:32:15.749Z,26.93
2023-04-10T00:33:15.665Z,28.82
2023-04-10T00:34:15.680Z,26.05
2023-04-10T00:35:15.690Z,25.92
2023-04-10T00:36:15.681Z,25.93
2023-04-10T00:37:15.681Z,26.18
2023-04-10T00:38:15.697Z,25.02
2023-04-10T00:39:15.674Z,27.99
2023-04-10T00:40:15.678Z,25.46
2023-04-10T00:41:15.671Z,27.17
2023-04-10T00:42:15.666Z,26.86
2023-04-10T00:43:15.666Z,25.59
2023-04-10T00:44:15.676Z,26.79
2023-04-10T00:45:15.651Z,29.00
2023-04-10T00:46:15.710Z,26.87
2023-04-10T00:47:15.640Z,29.87
2023-04-10T00:48:15.638Z,26.47
2023-04-10T00:49:15.635Z,26.91
2023-04-10T00:50:15.632Z,28.09
2023-04-10T00:51:15.631Z,29.72
2023-04-10T00:52:15.636Z,26.91
2023-04-10T00:53:15.639Z,25.93
2023-04-10T00:54:15.655Z,26.70
2023-04-10T00:55:15.629Z,29.91
2023-04-10T00:56:15.665Z,29.46
2023-04-10T00:57:15.641Z,30.66
2023-04-10T00:58:15.626Z,28.07
2023-04-10T00:59:15.626Z,28.70
2023-04-10T01:00:15.646Z,28.70
2023-04-10T01:01:15.696Z,25.50
2023-04-10T01:02:15.789Z,28.18
2023-04-10T01:03:15.885Z,28.39
2023-04-10T01:04:15.732Z,26.71
2023-04-10T01:05:15.629Z,27.90
2023-04-10T01:06:15.643Z,28.53
2023-04-10T01:07:15.610Z,27.44
2023-04-10T01:08:15.616Z,26.26
2023-04-10T01:09:15.610Z,28.58
2023-04-10T01:10:15.662Z,28.70
2023-04-10T01:11:15.612Z,27.01
2023-04-10T01:12:15.601Z,29.04
2023-04-10T01:13:15.598Z,27.64
2023-04-10T01:14:15.600Z,29.69
2023-04-10T01:15:15.592Z,25.51
2023-04-10T01:16:15.645Z,27.84
2023-04-10T01:17:15.589Z,28.95
2023-04-10T01:18:15.591Z,26.87
2023-04-10T01:19:15.592Z,27.09
2023-04-10T01:20:15.578Z,28.37
2023-04-10T01:21:15.580Z,29.21
2023-04-10T01:22:15.583Z,25.79
2023-04-10T01:23:15.589Z,27.53
2023-04-10T01:24:15.589Z,26.48
2023-04-10T01:25:15.597Z,25.00
2023-04-10T01:26:15.579Z,32.04
2023-04-10T01:27:15.578Z,28.45
2023-04-10T01:28:15.571Z,29.13
2023-04-10T01:29:15.569Z,29.23
2023-04-10T01:30:15.572Z,29.79
2023-04-10T01:31:15.607Z,28.58
2023-04-10T01:32:15.590Z,27.81
2023-04-10T01:33:15.571Z,27.69
2023-04-10T01:34:15.606Z,27.41
2023-04-10T01:35:15.569Z,29.31
2023-04-10T01:36:15.564Z,29.57
2023-04-10T01:37:15.555Z,27.36
2023-04-10T01:38:15.549Z,30.14
2023-04-10T01:39:15.566Z,26.26
2023-04-10T01:40:15.551Z,25.52
2023-04-10T01:41:15.546Z,25.41
2023-04-10T01:42:15.538Z,31.32
2023-04-10T01:43:15.549Z,27.98
2023-04-10T01:44:15.543Z,28.31
2023-04-10T01:45:15.546Z,30.01
2023-04-10T01:46:15.562Z,30.12
2023-04-10T01:47:15.535Z,28.62
2023-04-10T01:48:15.558Z,25.00
2023-04-10T01:49:15.535Z,26.78
2023-04-10T01:50:15.537Z,26.94
2023-04-10T01:51:15.538Z,29.65
2023-04-10T01:52:15.534Z,26.36
2023-04-10T01:53:15.541Z,28.28
2023-04-10T01:54:15.544Z,26.24
2023-04-10T01:55:15.532Z,25.43
2023-04-10T01:56:15.545Z,28.33
2023-04-10T01:57:15.526Z,29.99
2023-04-10T01:58:15.564Z,28.30
2023-04-10T01:59:15.525Z,29.52
2023-04-10T02:00:15.541Z,27.41
2023-04-10T02:01:26.290Z,27.04
2023-04-10T02:02:15.588Z,27.39
2023-04-10T02:03:15.691Z,28.30
2023-04-10T02:04:15.625Z,28.57
2023-04-10T02:05:15.497Z,28.98
2023-04-10T02:06:15.505Z,29.08
2023-04-10T02:07:15.482Z,29.66
2023-04-10T02:08:15.481Z,27.51
2023-04-10T02:09:15.484Z,28.80
2023-04-10T02:10:15.468Z,26.66
2023-04-10T02:11:15.465Z,28.76
2023-04-10T02:12:15.463Z,26.60
2023-04-10T02:13:15.461Z,25.02
2023-04-10T02:14:15.450Z,28.63
2023-04-10T02:15:15.458Z,26.10
2023-04-10T02:16:15.484Z,28.81
2023-04-10T02:17:15.438Z,27.28
2023-04-10T02:18:15.439Z,27.89
2023-04-10T02:19:15.441Z,28.37
2023-04-10T02:20:15.454Z,28.45
2023-04-10T02:21:15.425Z,27.47
2023-04-10T02:22:15.415Z,26.07
2023-04-10T02:23:15.414Z,29.36
2023-04-10T02:24:15.396Z,27.11
2023-04-10T02:25:15.386Z,31.07
2023-04-10T02:26:15.388Z,31.28
2023-04-10T02:27:15.365Z,28.46
2023-04-10T02:28:15.352Z,31.46
2023-04-10T02:29:15.348Z,28.27
2023-04-10T02:30:15.340Z,27.47
2023-04-10T02:31:15.356Z,28.33
2023-04-10T02:32:15.333Z,27.93
2023-04-10T02:33:15.325Z,28.37
2023-04-10T02:34:15.315Z,30.10
2023-04-10T02:35:15.311Z,29.92
2023-04-10T02:36:15.438Z,28.11
2023-04-10T02:37:15.299Z,26.45
2023-04-10T02:38:17.306Z,26.94
2023-04-10T02:39:15.278Z,27.20
2023-04-10T02:40:15.278Z,28.25
2023-04-10T02:41:15.260Z,28.78
2023-04-10T02:42:15.269Z,29.43
2023-04-10T02:43:15.254Z,31.43
2023-04-10T02:44:15.260Z,31.81
2023-04-10T02:45:15.233Z,28.75
2023-04-10T02:46:15.273Z,29.58
2023-04-10T02:47:15.228Z,28.58
2023-04-10T02:48:15.210Z,28.36
2023-04-10T02:49:15.204Z,29.77
2023-04-10T02:50:15.194Z,27.92
2023-04-10T02:51:15.190Z,27.05
2023-04-10T02:52:15.208Z,27.69
2023-04-10T02:53:15.250Z,26.08
2023-04-10T02:54:15.148Z,27.80
2023-04-10T02:55:15.141Z,25.18
2023-04-10T02:56:15.127Z,27.64
2023-04-10T02:57:15.113Z,26.56
2023-04-10T02:58:15.299Z,31.93
2023-04-10T02:59:15.119Z,27.39
2023-04-10T03:00:15.102Z,31.21
2023-04-10T03:01:15.090Z,30.86
2023-04-10T03:02:15.138Z,25.00
2023-04-10T03:03:15.166Z,29.72
2023-04-10T03:04:15.131Z,27.62
2023-04-10T03:05:15.067Z,27.09
2023-04-10T03:06:15.054Z,28.50
2023-04-10T03:07:15.039Z,27.31
2023-04-10T03:08:15.054Z,29.50
2023-04-10T03:09:15.026Z,29.00
2023-04-10T03:10:15.010Z,27.40
2023-04-10T03:11:14.998Z,28.94
2023-04-10T03:12:15.005Z,29.13
2023-04-10T03:13:14.981Z,29.47
2023-04-10T03:14:14.974Z,28.97
2023-04-10T03:15:14.958Z,29.36
2023-04-10T03:16:15.018Z,27.47
2023-04-10T03:17:14.932Z,28.14
2023-04-10T03:18:14.939Z,30.25
2023-04-10T03:19:14.908Z,28.86
2023-04-10T03:20:14.900Z,26.49
2023-04-10T03:21:14.884Z,27.90
2023-04-10T03:22:14.873Z,26.28
2023-04-10T03:23:14.868Z,26.55
2023-04-10T03:24:14.912Z,27.94
2023-04-10T03:25:15.011Z,31.86
2023-04-10T03:26:14.969Z,30.24
2023-04-10T03:27:14.967Z,30.66
2023-04-10T03:28:14.972Z,25.24
2023-04-10T03:29:14.977Z,27.76
2023-04-10T03:30:15.005Z,29.09
2023-04-10T03:31:15.055Z,28.90
2023-04-10T03:32:15.019Z,32.25
2023-04-10T03:33:15.012Z,28.97
2023-04-10T03:34:14.997Z,25.66
2023-04-10T03:35:15.005Z,28.70
2023-04-10T03:36:15.071Z,25.79
2023-04-10T03:37:15.023Z,28.96
2023-04-10T03:38:15.029Z,29.57
2023-04-10T03:39:15.035Z,31.87
2023-04-10T03:40:15.066Z,32.04
2023-04-10T03:41:15.040Z,30.05
2023-04-10T03:42:15.049Z,31.04
2023-04-10T03:43:15.058Z,28.83
2023-04-10T03:44:15.060Z,30.20
2023-04-10T03:45:15.071Z,26.92
2023-04-10T03:46:15.078Z,30.52
2023-04-10T03:47:15.237Z,30.08
2023-04-10T03:48:15.095Z,27.74
2023-04-10T03:49:15.102Z,26.70
2023-04-10T03:50:15.109Z,31.12
2023-04-10T03:51:15.117Z,25.24
2023-04-10T03:52:15.131Z,28.33
2023-04-10T03:53:15.130Z,30.37
2023-04-10T03:54:15.134Z,30.47
2023-04-10T03:55:15.141Z,27.98
2023-04-10T03:56:15.192Z,25.57
2023-04-10T03:57:15.160Z,26.46
2023-04-10T03:58:15.169Z,27.53
2023-04-10T03:59:15.189Z,33.32
2023-04-10T04:00:15.179Z,29.99
2023-04-10T04:01:15.193Z,27.68
2023-04-10T04:02:15.253Z,28.10
2023-04-10T04:03:15.389Z,27.74
2023-04-10T04:04:15.391Z,32.26
2023-04-10T04:05:15.220Z,29.29
2023-04-10T04:06:15.230Z,29.01
2023-04-10T04:07:15.241Z,28.23
2023-04-10T04:08:15.244Z,28.56
2023-04-10T04:09:15.254Z,28.46
2023-04-10T04:10:15.262Z,25.00
2023-04-10T04:11:15.327Z,28.29
2023-04-10T04:12:15.302Z,27.74
2023-04-10T04:13:15.345Z,28.11
2023-04-10T04:14:15.324Z,28.67
2023-04-10T04:15:15.310Z,26.67
2023-04-10T04:16:15.368Z,26.80
2023-04-10T04:17:15.314Z,26.11
2023-04-10T04:18:15.323Z,29.71
2023-04-10T04:19:15.346Z,29.26
2023-04-10T04:20:15.355Z,27.19
2023-04-10T04:21:15.365Z,30.75
2023-04-10T04:22:15.375Z,29.01
2023-04-10T04:23:15.383Z,30.79
2023-04-10T04:24:15.383Z,31.50
2023-04-10T04:25:15.402Z,31.13
2023-04-10T04:26:15.415Z,31.43
2023-04-10T04:27:15.433Z,28.50
2023-04-10T04:28:15.461Z,32.22
2023-04-10T04:29:15.496Z,28.88
2023-04-10T04:30:15.465Z,31.12
2023-04-10T04:31:15.465Z,34.90
2023-04-10T04:32:15.516Z,33.02
2023-04-10T04:33:15.484Z,33.67
2023-04-10T04:34:15.497Z,34.98
2023-04-10T04:35:15.503Z,32.47
2023-04-10T04:36:15.528Z,30.99
2023-04-10T04:37:15.512Z,30.51
2023-04-10T04:38:15.522Z,31.48
2023-04-10T04:39:15.550Z,34.16
2023-04-10T04:40:15.542Z,32.41
2023-04-10T04:41:15.543Z,31.36
2023-04-10T04:42:15.550Z,31.61
2023-04-10T04:43:15.553Z,35.74
2023-04-10T04:44:15.600Z,29.55
2023-04-10T04:45:15.578Z,31.32
2023-04-10T04:46:15.650Z,32.45
2023-04-10T04:47:15.586Z,32.30
2023-04-10T04:48:15.590Z,33.66
2023-04-10T04:49:15.593Z,32.89
2023-04-10T04:50:15.593Z,31.20
2023-04-10T04:51:15.605Z,28.60
2023-04-10T04:52:15.607Z,35.37
2023-04-10T04:53:15.625Z,31.12
2023-04-10T04:54:15.616Z,33.56
2023-04-10T04:55:15.626Z,30.07
2023-04-10T04:56:15.644Z,34.70
2023-04-10T04:57:15.658Z,31.73
2023-04-10T04:58:15.658Z,32.37
2023-04-10T04:59:15.664Z,31.61
2023-04-10T05:00:15.696Z,33.34
2023-04-10T05:01:15.701Z,34.36
2023-04-10T05:02:15.706Z,30.40
2023-04-10T05:03:15.844Z,31.59
2023-04-10T05:04:15.759Z,30.71
2023-04-10T05:05:15.686Z,30.96
2023-04-10T05:06:15.688Z,31.74
2023-04-10T05:07:15.707Z,31.51
2023-04-10T05:08:15.714Z,33.09
2023-04-10T05:09:15.712Z,33.60
2023-04-10T05:10:15.715Z,33.50
2023-04-10T05:11:15.723Z,30.87
2023-04-10T05:12:15.735Z,31.16
2023-04-10T05:13:15.767Z,32.81
2023-04-10T05:14:15.735Z,30.96
2023-04-10T05:15:15.749Z,34.20
2023-04-10T05:16:15.909Z,30.43
2023-04-10T05:17:15.744Z,32.96
2023-04-10T05:18:15.798Z,31.26
2023-04-10T05:19:15.754Z,29.37
2023-04-10T05:20:15.767Z,31.69
2023-04-10T05:21:15.793Z,32.11
2023-04-10T05:22:16.915Z,30.07
2023-04-10T05:23:15.777Z,35.84
2023-04-10T05:24:15.772Z,31.31
2023-04-10T05:25:15.754Z,34.37
2023-04-10T05:26:15.734Z,33.55
2023-04-10T05:27:15.737Z,32.27
2023-04-10T05:28:15.726Z,31.36
2023-04-10T05:29:15.718Z,30.51
2023-04-10T05:30:15.717Z,33.89
2023-04-10T05:31:15.756Z,29.45
2023-04-10T05:32:15.741Z,29.12
2023-04-10T05:33:15.701Z,32.26
2023-04-10T05:34:15.706Z,32.09
2023-04-10T05:35:15.715Z,30.97
2023-04-10T05:36:15.731Z,30.21
2023-04-10T05:37:15.691Z,33.68
2023-04-10T05:38:15.682Z,36.05
2023-04-10T05:39:15.745Z,33.89
2023-04-10T05:40:15.663Z,35.01
2023-04-10T05:41:15.674Z,32.42
2023-04-10T05:42:15.654Z,32.39
2023-04-10T05:43:15.661Z,30.69
2023-04-10T05:44:15.658Z,30.78
2023-04-10T05:45:15.658Z,27.45
2023-04-10T05:46:15.707Z,28.96
2023-04-10T05:47:15.639Z,29.04
2023-04-10T05:48:15.652Z,29.40
2023-04-10T05:49:15.628Z,29.46
2023-04-10T05:50:15.659Z,27.54
2023-04-10T05:51:15.636Z,30.13
2023-04-10T05:52:15.618Z,31.57
2023-04-10T05:53:15.616Z,32.00
2023-04-10T05:54:15.607Z,32.65
2023-04-10T05:55:15.599Z,29.57
2023-04-10T05:56:15.621Z,31.56
2023-04-10T05:57:15.597Z,28.49
2023-04-10T05:58:15.603Z,29.81
2023-04-10T05:59:15.589Z,32.31
2023-04-10T06:00:15.587Z,31.09
2023-04-10T06:01:15.584Z,30.77
2023-04-10T06:02:15.642Z,30.62
2023-04-10T06:03:15.746Z,31.54
2023-04-10T06:04:15.839Z,29.89
2023-04-10T06:05:15.593Z,30.45
2023-04-10T06:06:15.584Z,31.32
2023-04-10T06:07:15.575Z,31.16
2023-04-10T06:08:15.580Z,32.26
2023-04-10T06:09:15.573Z,32.96
2023-04-10T06:10:15.564Z,32.07
2023-04-10T06:11:15.570Z,30.95
2023-04-10T06:12:15.557Z,31.32
2023-04-10T06:13:15.557Z,29.19
2023-04-10T06:14:15.554Z,29.97
2023-04-10T06:15:15.565Z,32.03
2023-04-10T06:16:15.630Z,30.33
2023-04-10T06:17:15.546Z,29.80
2023-04-10T06:18:15.536Z,29.71
2023-04-10T06:19:15.537Z,30.22
2023-04-10T06:20:15.548Z,29.59
2023-04-10T06:21:15.534Z,30.13
2023-04-10T06:22:15.530Z,30.89
2023-04-10T06:23:15.830Z,30.42
2023-04-10T06:24:15.504Z,29.27
2023-04-10T06:25:15.507Z,28.20
2023-04-10T06:26:15.507Z,31.40
2023-04-10T06:27:15.505Z,34.99
2023-04-10T06:28:15.543Z,30.02
2023-04-10T06:29:15.499Z,26.29
2023-04-10T06:30:15.492Z,30.90
2023-04-10T06:31:15.619Z,28.48
2023-04-10T06:32:15.491Z,30.24
2023-04-10T06:33:15.486Z,28.13
2023-04-10T06:34:15.490Z,28.43
2023-04-10T06:35:15.483Z,27.10
2023-04-10T06:36:15.615Z,29.15
2023-04-10T06:37:15.487Z,31.77
2023-04-10T06:38:15.475Z,28.74
2023-04-10T06:39:15.490Z,27.41
2023-04-10T06:40:15.490Z,27.39
2023-04-10T06:41:15.467Z,26.70
2023-04-10T06:42:15.465Z,28.39
2023-04-10T06:43:15.460Z,25.40
2023-04-10T06:44:15.466Z,26.75
2023-04-10T06:45:15.462Z,27.93
2023-04-10T06:46:15.489Z,30.06
2023-04-10T06:47:15.464Z,29.28
2023-04-10T06:48:15.468Z,28.42
2023-04-10T06:49:15.470Z,30.86
2023-04-10T06:50:15.474Z,30.28
2023-04-10T06:51:15.467Z,29.36
2023-04-10T06:52:15.498Z,27.04
2023-04-10T06:53:15.472Z,29.88
2023-04-10T06:54:15.467Z,30.29
2023-04-10T06:55:15.492Z,27.96
2023-04-10T06:56:15.521Z,30.72
2023-04-10T06:57:15.481Z,30.51
2023-04-10T06:58:15.480Z,28.82
2023-04-10T06:59:15.483Z,28.15
2023-04-10T07:00:15.499Z,30.70
2023-04-10T07:01:15.543Z,29.56
2023-04-10T07:02:15.498Z,28.35
2023-04-10T07:03:15.787Z,28.61
2023-04-10T07:04:15.944Z,27.69
2023-04-10T07:05:15.451Z,31.15
2023-04-10T07:06:15.447Z,29.67
2023-04-10T07:07:15.439Z,31.24
2023-04-10T07:08:15.447Z,27.94
2023-04-10T07:09:15.426Z,28.88
2023-04-10T07:10:15.426Z,29.60
2023-04-10T07:11:15.406Z,29.07
2023-04-10T07:12:15.411Z,27.49
2023-04-10T07:13:15.391Z,28.20
2023-04-10T07:14:15.389Z,28.06
2023-04-10T07:15:15.374Z,31.04
2023-04-10T07:16:15.417Z,31.34
2023-04-10T07:17:15.365Z,27.82
2023-04-10T07:18:15.364Z,30.19
2023-04-10T07:19:15.354Z,31.67
2023-04-10T07:20:15.358Z,30.36
2023-04-10T07:21:15.345Z,28.42
2023-04-10T07:22:15.343Z,27.61
2023-04-10T07:23:15.327Z,29.91
2023-04-10T07:24:15.344Z,30.84
2023-04-10T07:25:15.311Z,34.60
2023-04-10T07:26:15.294Z,36.06
2023-04-10T07:27:15.294Z,28.79
2023-04-10T07:28:15.301Z,25.32
2023-04-10T07:29:15.291Z,28.08
2023-04-10T07:30:15.291Z,27.56
2023-04-10T07:31:15.328Z,30.98
2023-04-10T07:32:15.431Z,29.12
2023-04-10T07:33:15.467Z,29.35
2023-04-10T07:34:15.281Z,29.01
2023-04-10T07:35:15.266Z,27.14
2023-04-10T07:36:15.271Z,28.64
2023-04-10T07:37:15.268Z,28.92
2023-04-10T07:38:15.238Z,30.16
2023-04-10T07:39:15.241Z,28.79
2023-04-10T07:40:15.258Z,27.61
2023-04-10T07:41:15.243Z,29.05
2023-04-10T07:42:15.234Z,33.46
2023-04-10T07:43:15.209Z,26.99
2023-04-10T07:44:15.211Z,30.23
2023-04-10T07:45:15.190Z,34.11
2023-04-10T07:46:15.273Z,31.72
2023-04-10T07:47:15.198Z,32.19
2023-04-10T07:48:15.185Z,29.71
2023-04-10T07:49:15.179Z,29.50
2023-04-10T07:50:15.170Z,30.05
2023-04-10T07:51:15.168Z,31.71
2023-04-10T07:52:15.157Z,29.95
2023-04-10T07:53:15.147Z,30.42
2023-04-10T07:54:15.148Z,31.22
2023-04-10T07:55:15.134Z,27.78
2023-04-10T07:56:15.153Z,29.40
2023-04-10T07:57:15.117Z,31.80
2023-04-10T07:58:15.113Z,30.04
2023-04-10T07:59:15.111Z,30.44
2023-04-10T08:00:15.109Z,33.12
2023-04-10T08:01:15.107Z,29.50
2023-04-10T08:02:15.224Z,30.85
2023-04-10T08:03:15.390Z,30.05
2023-04-10T08:04:15.332Z,34.43
2023-04-10T08:05:15.125Z,29.31
2023-04-10T08:06:15.070Z,33.28
2023-04-10T08:07:15.067Z,32.26
2023-04-10T08:08:15.063Z,28.36
2023-04-10T08:09:15.054Z,33.48
2023-04-10T08:10:15.048Z,31.69
2023-04-10T08:11:15.037Z,31.71
2023-04-10T08:12:15.064Z,33.39
2023-04-10T08:13:15.028Z,34.56
2023-04-10T08:14:18.433Z,34.49
2023-04-10T08:15:15.005Z,34.60
2023-04-10T08:16:15.053Z,33.36
2023-04-10T08:17:15.197Z,33.39
2023-04-10T08:18:14.973Z,30.45
2023-04-10T08:19:14.966Z,30.98
2023-04-10T08:20:14.958Z,32.93
2023-04-10T08:21:14.964Z,31.26
2023-04-10T08:22:14.957Z,30.33
2023-04-10T08:23:20.572Z,31.00
2023-04-10T08:24:14.942Z,31.30
2023-04-10T08:25:14.952Z,32.13
2023-04-10T08:26:14.928Z,32.74
2023-04-10T08:27:14.922Z,32.06
2023-04-10T08:28:14.949Z,33.25
2023-04-10T08:29:14.894Z,33.63
2023-04-10T08:30:14.883Z,30.78
2023-04-10T08:31:14.888Z,30.06
2023-04-10T08:32:14.868Z,33.78
2023-04-10T08:33:14.857Z,30.76
2023-04-10T08:34:14.845Z,33.06
2023-04-10T08:35:14.833Z,29.98
2023-04-10T08:36:14.874Z,30.30
2023-04-10T08:37:14.806Z,30.01
2023-04-10T08:38:14.988Z,30.98
2023-04-10T08:39:14.770Z,30.58
2023-04-10T08:40:14.762Z,31.98
2023-04-10T08:41:14.745Z,30.54
2023-04-10T08:42:14.750Z,31.54
2023-04-10T08:43:14.741Z,30.27
2023-04-10T08:44:14.774Z,33.17
2023-04-10T08:45:14.708Z,30.45
2023-04-10T08:46:15.165Z,31.14
2023-04-10T08:47:14.710Z,33.69
2023-04-10T08:48:14.696Z,35.33
2023-04-10T08:49:14.684Z,29.68
2023-04-10T08:50:14.707Z,31.77
2023-04-10T08:51:18.663Z,32.67
2023-04-10T08:52:14.673Z,33.05
2023-04-10T08:53:14.676Z,33.63
2023-04-10T08:54:14.657Z,33.57
2023-04-10T08:55:14.658Z,33.90
2023-04-10T08:56:14.657Z,35.61
2023-04-10T08:57:14.652Z,33.43
2023-04-10T08:58:14.653Z,35.39
2023-04-10T08:59:14.648Z,31.98
2023-04-10T09:00:23.056Z,33.07
2023-04-10T09:01:14.655Z,33.46
2023-04-10T09:02:14.728Z,34.12
2023-04-10T09:03:14.862Z,33.82
2023-04-10T09:04:14.736Z,35.49
2023-04-10T09:05:14.608Z,35.94
2023-04-10T09:06:14.608Z,32.64
2023-04-10T09:07:14.613Z,34.18
2023-04-10T09:08:14.582Z,36.34
2023-04-10T09:09:14.596Z,31.16
2023-04-10T09:10:14.572Z,31.83
2023-04-10T09:11:14.575Z,33.29
2023-04-10T09:12:14.573Z,31.97
2023-04-10T09:13:14.558Z,33.69
2023-04-10T09:14:14.558Z,36.15
2023-04-10T09:15:14.552Z,33.95
2023-04-10T09:16:14.660Z,33.62
2023-04-10T09:17:14.537Z,34.84
2023-04-10T09:18:14.545Z,32.07
2023-04-10T09:19:14.529Z,35.17
2023-04-10T09:20:14.524Z,31.18
2023-04-10T09:21:14.536Z,33.27
2023-04-10T09:22:14.523Z,33.41
2023-04-10T09:23:14.513Z,32.08
2023-04-10T09:24:14.509Z,35.40
2023-04-10T09:25:14.505Z,30.90
2023-04-10T09:26:14.494Z,30.50
2023-04-10T09:27:14.491Z,34.03
2023-04-10T09:28:14.481Z,31.12
2023-04-10T09:29:14.479Z,32.13
2023-04-10T09:30:14.466Z,33.30
2023-04-10T09:31:14.505Z,29.36
2023-04-10T09:32:14.487Z,33.18
2023-04-10T09:33:14.468Z,31.73
2023-04-10T09:34:14.456Z,29.53
2023-04-10T09:35:14.449Z,29.73
2023-04-10T09:36:14.454Z,28.56
2023-04-10T09:37:14.438Z,31.02
2023-04-10T09:38:14.436Z,30.14
2023-04-10T09:39:14.443Z,30.30
2023-04-10T09:40:14.434Z,27.89
2023-04-10T09:41:14.426Z,27.18
2023-04-10T09:42:14.425Z,28.44
2023-04-10T09:43:14.418Z,28.98
2023-04-10T09:44:14.414Z,32.69
2023-04-10T09:45:14.408Z,29.07
2023-04-10T09:46:14.412Z,30.87
2023-04-10T09:47:14.394Z,30.19
2023-04-10T09:48:14.422Z,31.44
2023-04-10T09:49:14.397Z,32.07
2023-04-10T09:50:14.379Z,30.89
2023-04-10T09:51:14.360Z,31.67
2023-04-10T09:52:14.353Z,32.24
2023-04-10T09:53:14.348Z,30.60
2023-04-10T09:54:14.340Z,29.95
2023-04-10T09:55:14.332Z,31.77
2023-04-10T09:56:14.325Z,29.91
2023-04-10T09:57:14.321Z,31.65
2023-04-10T09:58:14.310Z,33.23
2023-04-10T09:59:14.303Z,33.25
2023-04-10T10:00:14.300Z,30.70
2023-04-10T10:01:14.288Z,34.17
2023-04-10T10:02:14.416Z,31.06
2023-04-10T10:03:14.551Z,34.82
2023-04-10T10:04:14.403Z,32.22
2023-04-10T10:05:14.329Z,32.30
2023-04-10T10:06:14.268Z,33.63
2023-04-10T10:07:14.255Z,35.81
2023-04-10T10:08:14.246Z,30.39
2023-04-10T10:09:14.255Z,32.25
2023-04-10T10:10:14.250Z,34.17
2023-04-10T10:11:14.231Z,32.49
2023-04-10T10:12:14.228Z,31.30
2023-04-10T10:13:14.217Z,32.81
2023-04-10T10:14:14.233Z,29.67
2023-04-10T10:15:14.242Z,31.69
2023-04-10T10:16:14.240Z,28.63
2023-04-10T10:17:14.249Z,28.96
2023-04-10T10:18:14.255Z,34.88
2023-04-10T10:19:14.282Z,32.39
2023-04-10T10:20:14.390Z,28.96
2023-04-10T10:21:14.282Z,32.92
2023-04-10T10:22:14.285Z,28.13
2023-04-10T10:23:14.295Z,30.58
2023-04-10T10:24:14.315Z,31.17
2023-04-10T10:25:14.328Z,32.73
2023-04-10T10:26:14.324Z,34.21
2023-04-10T10:27:14.343Z,32.90
2023-04-10T10:28:14.336Z,36.09
2023-04-10T10:29:14.342Z,34.85
2023-04-10T10:30:28.232Z,33.32
2023-04-10T10:31:14.369Z,33.63
2023-04-10T10:32:14.337Z,34.80
2023-04-10T10:33:14.365Z,35.75
2023-04-10T10:34:13.322Z,36.54
2023-04-10T10:35:14.308Z,30.10
2023-04-10T10:36:14.353Z,26.89
2023-04-10T10:37:14.287Z,29.19
2023-04-10T10:38:14.287Z,30.26
2023-04-10T10:39:14.285Z,32.18
2023-04-10T10:40:14.293Z,32.04
2023-04-10T10:41:14.294Z,27.85
2023-04-10T10:42:14.281Z,33.17
2023-04-10T10:43:14.263Z,30.54
2023-04-10T10:44:14.243Z,30.52
2023-04-10T10:45:14.238Z,33.46
2023-04-10T10:46:14.283Z,32.15
2023-04-10T10:47:14.223Z,29.38
2023-04-10T10:48:14.213Z,28.51
2023-04-10T10:49:14.204Z,28.24
2023-04-10T10:50:14.201Z,25.76
2023-04-10T10:51:14.181Z,25.00
2023-04-10T10:52:14.194Z,29.56
2023-04-10T10:53:14.174Z,27.89
2023-04-10T10:54:14.157Z,30.96
2023-04-10T10:55:14.149Z,33.39
2023-04-10T10:56:14.149Z,28.20
2023-04-10T10:57:14.137Z,28.22
2023-04-10T10:58:14.156Z,30.18
2023-04-10T10:59:14.170Z,33.80
2023-04-10T11:00:14.192Z,32.10
2023-04-10T11:01:14.274Z,29.27
2023-04-10T11:02:14.321Z,30.36
2023-04-10T11:03:14.373Z,31.99
2023-04-10T11:04:14.306Z,33.04
2023-04-10T11:05:14.257Z,35.27
2023-04-10T11:06:14.269Z,35.83
2023-04-10T11:07:14.272Z,37.62
2023-04-10T11:08:14.311Z,33.48
2023-04-10T11:09:14.305Z,35.17
2023-04-10T11:10:14.313Z,33.62
2023-04-10T11:11:14.332Z,31.67
2023-04-10T11:12:14.363Z,34.00
2023-04-10T11:13:14.372Z,38.31
2023-04-10T11:14:14.395Z,38.23
2023-04-10T11:15:14.403Z,38.36
2023-04-10T11:16:14.430Z,38.63
2023-04-10T11:17:14.435Z,42.55
2023-04-10T11:18:14.450Z,41.84
2023-04-10T11:19:15.834Z,39.65
2023-04-10T11:20:14.537Z,43.08
2023-04-10T11:21:14.447Z,44.82
2023-04-10T11:22:14.447Z,41.36
2023-04-10T11:23:14.444Z,43.25
2023-04-10T11:24:14.476Z,43.07
2023-04-10T11:25:14.472Z,42.44
2023-04-10T11:26:14.447Z,42.38
2023-04-10T11:27:14.443Z,41.31
2023-04-10T11:28:14.437Z,43.42
2023-04-10T11:29:14.442Z,43.54
2023-04-10T11:30:14.429Z,42.14
2023-04-10T11:31:14.453Z,44.06
2023-04-10T11:32:14.455Z,40.55
2023-04-10T11:33:14.431Z,43.85
2023-04-10T11:34:14.420Z,44.71
2023-04-10T11:35:14.425Z,43.26
2023-04-10T11:36:14.420Z,43.51
2023-04-10T11:37:14.425Z,44.31
2023-04-10T11:38:14.420Z,43.67
2023-04-10T11:39:14.411Z,43.31
2023-04-10T11:40:14.444Z,45.42
2023-04-10T11:41:14.409Z,45.54
2023-04-10T11:42:14.403Z,44.31
2023-04-10T11:43:14.391Z,44.22
2023-04-10T11:44:14.385Z,43.11
2023-04-10T11:45:14.385Z,43.30
2023-04-10T11:46:14.403Z,46.64
2023-04-10T11:47:14.385Z,45.97
2023-04-10T11:48:14.371Z,46.52
2023-04-10T11:49:14.364Z,45.72
2023-04-10T11:50:14.366Z,46.77
2023-04-10T11:51:14.361Z,46.69
2023-04-10T11:52:14.364Z,45.87
2023-04-10T11:53:14.374Z,49.52
2023-04-10T11:54:14.362Z,47.22
2023-04-10T11:55:14.361Z,45.18
2023-04-10T11:56:14.380Z,44.04
2023-04-10T11:57:14.363Z,46.15
2023-04-10T11:58:14.360Z,44.62
2023-04-10T11:59:14.371Z,45.27
2023-04-10T12:00:14.376Z,49.64
2023-04-10T12:01:14.388Z,47.67
2023-04-10T12:02:14.565Z,50.36
2023-04-10T12:03:14.573Z,47.29
2023-04-10T12:04:14.615Z,51.04
2023-04-10T12:05:14.486Z,48.24
2023-04-10T12:06:14.386Z,50.25
2023-04-10T12:07:14.385Z,49.26
2023-04-10T12:08:14.358Z,49.09
2023-04-10T12:09:14.402Z,46.98
2023-04-10T12:10:14.351Z,49.85
2023-04-10T12:11:14.337Z,48.71
2023-04-10T12:12:14.357Z,48.55
2023-04-10T12:13:14.351Z,49.53
2023-04-10T12:14:14.353Z,48.88
2023-04-10T12:15:14.334Z,50.44
2023-04-10T12:16:14.414Z,49.40
2023-04-10T12:17:14.374Z,52.26
2023-04-10T12:18:14.321Z,54.22
2023-04-10T12:19:14.309Z,52.10
2023-04-10T12:20:14.314Z,50.92
2023-04-10T12:21:14.308Z,51.54
2023-04-10T12:22:14.316Z,52.20
2023-04-10T12:23:14.303Z,51.69
2023-04-10T12:24:14.297Z,52.19
2023-04-10T12:25:14.303Z,51.31
2023-04-10T12:26:14.302Z,51.62
2023-04-10T12:27:14.285Z,54.35
2023-04-10T12:28:14.308Z,57.41
2023-04-10T12:29:14.288Z,54.09
2023-04-10T12:30:14.282Z,54.20
2023-04-10T12:31:14.319Z,55.20
2023-04-10T12:32:14.289Z,52.14
2023-04-10T12:33:14.265Z,52.93
2023-04-10T12:34:14.265Z,52.30
2023-04-10T12:35:14.253Z,51.78
2023-04-10T12:36:14.254Z,54.96
2023-04-10T12:37:14.246Z,56.57
2023-04-10T12:38:14.247Z,53.50
2023-04-10T12:39:14.236Z,53.39
2023-04-10T12:40:14.229Z,56.34
2023-04-10T12:41:14.224Z,57.83
2023-04-10T12:42:14.224Z,54.91
2023-04-10T12:43:14.212Z,54.43
2023-04-10T12:44:14.244Z,57.23
2023-04-10T12:45:14.316Z,57.39
2023-04-10T12:46:14.226Z,59.06
2023-04-10T12:47:14.194Z,57.13
2023-04-10T12:48:14.171Z,59.74
2023-04-10T12:49:14.182Z,55.01
2023-04-10T12:50:14.148Z,61.07
2023-04-10T12:51:14.150Z,59.38
2023-04-10T12:52:14.140Z,58.82
2023-04-10T12:53:15.160Z,59.30